createdAt,value
2018-07-05T00:02:26.826Z,17.70
2018-07-05T00:05:06.705Z,17.60
2018-07-05T00:07:46.622Z,17.60
2018-07-05T00:10:26.450Z,17.60
2018-07-05T00:13:06.400Z,17.60
2018-07-05T00:15:46.301Z,17.50
2018-07-05T00:18:26.113Z,17.50
2018-07-05T00:21:05.831Z,17.50
2018-07-05T00:23:45.569Z,17.50
2018-07-05T00:26:25.339Z,17.50
2018-07-05T00:29:05.360Z,17.50
2018-07-05T00:31:44.920Z,17.40
2018-07-05T00:34:24.595Z,17.40
2018-07-05T00:37:04.411Z,17.40
2018-07-05T00:39:44.176Z,17.30
2018-07-05T00:42:23.883Z,17.30
2018-07-05T00:45:03.811Z,17.20
2018-07-05T00:47:43.585Z,17.30
2018-07-05T00:50:23.392Z,17.30
2018-07-05T00:53:03.128Z,17.20
2018-07-05T00:55:42.995Z,17.20
2018-07-05T00:58:22.830Z,17.10
2018-07-05T01:01:02.567Z,17.10
2018-07-05T01:03:42.391Z,17.10
2018-07-05T01:06:22.345Z,17.00
2018-07-05T01:09:02.189Z,17.10
2018-07-05T01:11:42.151Z,17.00
2018-07-05T01:14:21.901Z,17.00
2018-07-05T01:17:01.790Z,17.00
2018-07-05T01:19:41.512Z,16.90
2018-07-05T01:22:21.411Z,16.90
2018-07-05T01:25:01.119Z,16.90
2018-07-05T01:27:41.132Z,16.90
2018-07-05T01:30:21.110Z,16.80
2018-07-05T01:33:01.103Z,16.80
2018-07-05T01:35:40.866Z,16.70
2018-07-05T01:38:20.702Z,16.70
2018-07-05T01:41:00.536Z,16.70
2018-07-05T01:43:40.675Z,16.70
2018-07-05T01:46:20.467Z,16.70
2018-07-05T01:49:00.192Z,16.60
2018-07-05T01:51:39.902Z,16.60
2018-07-05T01:54:19.845Z,16.60
2018-07-05T01:56:59.727Z,16.50
2018-07-05T01:59:39.546Z,16.50
2018-07-05T02:02:19.295Z,16.40
2018-07-05T02:04:59.222Z,16.40
2018-07-05T02:07:38.897Z,16.30
2018-07-05T02:10:18.821Z,16.30
2018-07-05T02:12:58.789Z,16.30
2018-07-05T02:15:38.543Z,16.30
2018-07-05T02:18:18.461Z,16.30
2018-07-05T02:20:58.227Z,16.20
2018-07-05T02:23:37.938Z,16.20
2018-07-05T02:26:17.902Z,16.00
2018-07-05T02:28:57.765Z,16.00
2018-07-05T02:31:37.671Z,16.10
2018-07-05T02:34:17.625Z,16.10
2018-07-05T02:36:57.731Z,16.10
2018-07-05T02:39:43.017Z,16.00
2018-07-05T02:42:23.005Z,16.00
2018-07-05T02:45:02.763Z,16.00
2018-07-05T02:47:42.888Z,16.00
2018-07-05T02:50:22.903Z,16.00
2018-07-05T02:53:02.771Z,15.90
2018-07-05T02:55:42.653Z,15.90
2018-07-05T02:58:22.485Z,15.90
2018-07-05T03:01:02.074Z,15.80
2018-07-05T03:03:42.060Z,15.70
2018-07-05T03:06:21.822Z,15.80
2018-07-05T03:09:01.555Z,15.80
2018-07-05T03:11:41.301Z,15.80
2018-07-05T03:14:21.232Z,15.70
2018-07-05T03:17:01.221Z,15.70
2018-07-05T03:19:40.984Z,15.70
2018-07-05T03:22:20.860Z,15.70
2018-07-05T03:25:00.791Z,15.70
2018-07-05T03:27:40.574Z,15.70
2018-07-05T03:30:20.503Z,15.70
2018-07-05T03:33:00.343Z,15.80
2018-07-05T03:35:40.087Z,15.70
2018-07-05T03:38:19.827Z,15.70
2018-07-05T03:40:59.550Z,15.70
2018-07-05T03:43:39.310Z,15.80
2018-07-05T03:46:19.159Z,15.80
2018-07-05T03:48:58.754Z,15.80
2018-07-05T03:51:38.570Z,15.80
2018-07-05T03:54:18.366Z,15.80
2018-07-05T03:56:58.308Z,15.90
2018-07-05T03:59:38.222Z,15.90
2018-07-05T04:02:18.075Z,15.90
2018-07-05T04:04:57.738Z,15.90
2018-07-05T04:07:37.362Z,16.00
2018-07-05T04:10:17.120Z,16.10
2018-07-05T04:12:57.071Z,16.20
2018-07-05T04:15:36.863Z,16.20
2018-07-05T04:18:16.771Z,16.20
2018-07-05T04:20:56.660Z,16.30
2018-07-05T04:23:36.550Z,16.40
2018-07-05T04:26:16.343Z,16.40
2018-07-05T04:28:56.478Z,16.60
2018-07-05T04:31:36.191Z,16.70
2018-07-05T04:34:16.055Z,16.80
2018-07-05T04:36:55.588Z,16.80
2018-07-05T04:39:35.368Z,16.90
2018-07-05T04:42:15.039Z,17.10
2018-07-05T04:44:54.885Z,17.20
2018-07-05T04:47:34.681Z,17.30
2018-07-05T04:50:14.479Z,17.50
2018-07-05T04:52:54.342Z,17.70
2018-07-05T04:55:33.995Z,17.80
2018-07-05T04:58:13.615Z,18.00
2018-07-05T05:00:53.553Z,18.10
2018-07-05T05:03:33.411Z,18.20
2018-07-05T05:06:13.554Z,18.40
2018-07-05T05:08:53.393Z,18.60
2018-07-05T05:11:33.266Z,18.70
2018-07-05T05:14:13.164Z,19.00
2018-07-05T05:16:53.033Z,19.20
2018-07-05T05:19:32.722Z,19.30
2018-07-05T05:22:12.640Z,19.30
2018-07-05T05:24:52.596Z,19.50
2018-07-05T05:27:32.721Z,19.60
2018-07-05T05:30:12.593Z,19.70
2018-07-05T05:32:52.602Z,19.70
2018-07-05T05:35:32.406Z,19.90
2018-07-05T05:38:12.413Z,20.10
2018-07-05T05:40:52.246Z,20.20
2018-07-05T05:43:32.147Z,20.40
2018-07-05T05:46:11.831Z,20.50
2018-07-05T05:48:51.880Z,20.60
2018-07-05T05:51:31.987Z,20.70
2018-07-05T05:54:12.164Z,20.80
2018-07-05T05:56:52.222Z,21.00
2018-07-05T05:59:32.160Z,21.00
2018-07-05T06:02:12.114Z,21.10
2018-07-05T06:04:52.160Z,21.30
2018-07-05T06:07:32.019Z,21.30
2018-07-05T06:10:12.143Z,21.50
2018-07-05T06:12:52.035Z,21.50
2018-07-05T06:15:32.049Z,21.60
2018-07-05T06:18:11.896Z,21.70
2018-07-05T06:20:51.731Z,21.70
2018-07-05T06:23:31.674Z,21.80
2018-07-05T06:26:11.639Z,22.00
2018-07-05T06:28:51.726Z,22.10
2018-07-05T06:31:31.627Z,22.20
2018-07-05T06:34:11.548Z,22.20
2018-07-05T06:36:51.732Z,22.30
2018-07-05T06:39:31.596Z,22.30
2018-07-05T06:42:11.523Z,22.40
2018-07-05T06:44:51.387Z,22.40
2018-07-05T06:47:31.179Z,22.40
2018-07-05T06:52:45.164Z,22.50
2018-07-05T06:55:24.958Z,22.50
2018-07-05T06:58:04.707Z,22.60
2018-07-05T07:00:44.559Z,22.70
2018-07-05T07:03:24.774Z,22.80
2018-07-05T07:06:04.630Z,22.90
2018-07-05T07:08:44.846Z,22.90
2018-07-05T07:11:24.743Z,22.90
2018-07-05T07:30:54.369Z,23.30
2018-07-05T07:33:34.246Z,23.40
2018-07-05T07:36:14.187Z,23.50
2018-07-05T07:38:54.037Z,23.60
2018-07-05T07:41:34.140Z,23.70
2018-07-05T07:44:01.547Z,23.80
2018-07-05T07:46:28.944Z,23.90
2018-07-05T07:48:56.518Z,24.10
2018-07-05T07:51:24.599Z,24.10
2018-07-05T07:53:52.100Z,24.20
2018-07-05T07:56:19.728Z,24.30
2018-07-05T07:58:47.101Z,24.30
2018-07-05T08:01:14.489Z,24.50
2018-07-05T08:03:42.307Z,24.50
2018-07-05T08:06:09.878Z,24.50
2018-07-05T08:08:37.271Z,24.50
2018-07-05T08:11:04.926Z,24.50
2018-07-05T08:13:32.300Z,24.50
2018-07-05T08:15:59.645Z,24.70
2018-07-05T08:18:27.290Z,24.70
2018-07-05T08:20:54.656Z,24.70
2018-07-05T08:23:22.047Z,24.70
2018-07-05T08:25:49.569Z,24.70
2018-07-05T08:28:16.927Z,24.80
2018-07-05T08:30:44.306Z,24.90
2018-07-05T08:33:11.863Z,25.00
2018-07-05T08:35:39.285Z,25.10
2018-07-05T08:38:06.656Z,25.30
2018-07-05T08:40:34.187Z,25.40
2018-07-05T08:43:01.563Z,25.50
2018-07-05T08:45:28.939Z,25.60
2018-07-05T08:47:56.522Z,25.60
2018-07-05T08:50:23.863Z,25.70
2018-07-05T08:55:19.084Z,25.80
2018-07-05T08:57:46.447Z,25.90
2018-07-05T09:00:13.857Z,26.00
2018-07-05T09:02:41.403Z,26.10
2018-07-05T09:05:08.814Z,26.10
2018-07-05T09:07:36.130Z,26.20
2018-07-05T09:10:03.544Z,26.20
2018-07-05T09:12:30.921Z,26.20
2018-07-05T09:17:26.222Z,26.40
2018-07-05T09:19:53.543Z,26.40
2018-07-05T09:22:20.899Z,26.50
2018-07-05T09:24:48.448Z,26.60
2018-07-05T09:27:15.817Z,26.60
2018-07-05T09:29:43.166Z,26.70
2018-07-05T09:32:10.741Z,26.80
2018-07-05T09:34:38.132Z,26.90
2018-07-05T09:37:05.522Z,26.90
2018-07-05T09:39:33.124Z,27.00
2018-07-05T09:42:00.488Z,27.10
2018-07-05T09:44:28.476Z,27.10
2018-07-05T09:46:56.182Z,27.20
2018-07-05T09:49:23.599Z,27.40
2018-07-05T09:51:51.021Z,27.40
2018-07-05T09:54:18.624Z,27.50
2018-07-05T09:56:45.991Z,27.70
2018-07-05T09:59:13.353Z,27.80
2018-07-05T10:01:40.898Z,28.00
2018-07-05T10:04:08.263Z,27.90
2018-07-05T10:06:35.641Z,28.10
2018-07-05T10:25:51.326Z,29.00
2018-07-05T10:28:18.720Z,29.30
2018-07-05T10:30:58.470Z,29.30
2018-07-05T10:33:38.328Z,29.50
2018-07-05T10:53:08.101Z,30.00
2018-07-05T10:55:47.904Z,30.10
2018-07-05T10:58:27.704Z,30.30
2018-07-05T11:01:07.572Z,30.50
2018-07-05T11:03:47.438Z,30.50
2018-07-05T11:23:16.488Z,31.10
2018-07-05T11:25:56.395Z,31.10
2018-07-05T11:28:36.220Z,30.70
2018-07-05T11:31:15.934Z,31.00
2018-07-05T11:50:45.402Z,31.90
2018-07-05T11:53:25.241Z,32.00
2018-07-05T11:56:05.130Z,32.40
2018-07-05T11:58:45.082Z,32.30
2018-07-05T12:18:13.780Z,32.40
2018-07-05T12:20:53.451Z,32.80
2018-07-05T12:23:33.354Z,32.70
2018-07-05T12:26:13.333Z,32.60
2018-07-05T12:28:53.306Z,32.50
2018-07-05T12:31:33.061Z,32.70
2018-07-05T12:34:13.030Z,33.00
2018-07-05T12:36:52.791Z,33.00
2018-07-05T12:39:32.432Z,32.90
2018-07-05T12:42:12.167Z,32.90
2018-07-05T12:44:53.436Z,32.80
2018-07-05T12:47:34.273Z,33.30
2018-07-05T12:50:14.150Z,33.20
2018-07-05T12:52:53.864Z,33.30
2018-07-05T12:55:33.842Z,33.40
2018-07-05T12:58:13.898Z,33.60
2018-07-05T13:00:53.800Z,33.00
2018-07-05T13:03:33.479Z,32.70
2018-07-05T13:06:13.513Z,32.80
2018-07-05T13:08:53.143Z,33.00
2018-07-05T13:11:32.900Z,33.20
2018-07-05T13:14:12.718Z,33.30
2018-07-05T13:16:52.613Z,33.30
2018-07-05T13:19:32.227Z,32.90
2018-07-05T13:22:12.292Z,32.90
2018-07-05T13:24:52.194Z,33.00
2018-07-05T13:27:32.264Z,33.00
2018-07-05T13:30:12.118Z,33.30
2018-07-05T13:32:52.060Z,33.20
2018-07-05T13:35:31.710Z,33.20
2018-07-05T13:38:11.357Z,33.60
2018-07-05T13:40:51.032Z,33.40
2018-07-05T13:43:31.033Z,33.60
2018-07-05T13:46:10.785Z,33.60
2018-07-05T13:48:50.735Z,33.20
2018-07-05T13:51:30.618Z,33.00
2018-07-05T13:54:10.404Z,32.70
2018-07-05T13:56:50.069Z,32.70
2018-07-05T13:59:29.812Z,32.90
2018-07-05T14:02:09.416Z,32.80
2018-07-05T14:04:49.221Z,32.90
2018-07-05T14:07:28.921Z,32.90
2018-07-05T14:10:08.695Z,33.00
2018-07-05T14:12:48.449Z,33.00
2018-07-05T14:15:28.439Z,32.80
2018-07-05T14:18:08.211Z,32.70
2018-07-05T14:20:49.864Z,32.70
2018-07-05T14:23:29.700Z,32.70
2018-07-05T14:26:09.387Z,32.50
2018-07-05T14:28:49.556Z,32.30
2018-07-05T14:31:29.459Z,32.30
2018-07-05T14:34:09.214Z,32.30
2018-07-05T14:36:49.059Z,32.20
2018-07-05T14:39:28.913Z,32.20
2018-07-05T14:42:08.822Z,32.10
2018-07-05T14:44:48.500Z,32.10
2018-07-05T15:04:15.754Z,31.60
2018-07-05T15:06:55.540Z,31.50
2018-07-05T15:09:35.235Z,31.60
2018-07-05T15:12:15.309Z,31.60
2018-07-05T15:14:55.189Z,31.60
2018-07-05T15:17:34.951Z,31.60
2018-07-05T15:20:14.867Z,31.60
2018-07-05T15:22:54.880Z,31.50
2018-07-05T15:25:34.754Z,31.40
2018-07-05T15:28:14.577Z,31.50
2018-07-05T15:30:54.450Z,31.40
2018-07-05T15:33:34.365Z,31.30
2018-07-05T15:36:14.053Z,31.10
2018-07-05T15:38:53.850Z,31.20
2018-07-05T15:58:22.315Z,31.00
2018-07-05T16:01:02.132Z,31.10
2018-07-05T16:03:41.996Z,31.00
2018-07-05T16:26:04.101Z,30.40
2018-07-05T16:28:43.891Z,30.30
2018-07-05T16:31:23.666Z,30.40
2018-07-05T16:34:03.475Z,30.40
2018-07-05T16:36:43.279Z,30.50
2018-07-05T16:39:22.895Z,30.50
2018-07-05T16:42:02.616Z,30.50
2018-07-05T16:44:42.356Z,30.40
2018-07-05T16:47:22.139Z,30.40
2018-07-05T16:50:02.098Z,30.50
2018-07-05T16:52:41.970Z,30.40
2018-07-05T16:55:21.834Z,30.40
2018-07-05T16:58:01.606Z,30.30
2018-07-05T17:17:30.113Z,29.70
2018-07-05T17:20:10.178Z,29.70
2018-07-05T17:22:50.067Z,29.60
2018-07-05T17:25:29.963Z,29.50
2018-07-05T17:28:09.827Z,29.40
2018-07-05T17:30:49.813Z,29.70
2018-07-05T17:33:29.572Z,29.70
2018-07-05T17:36:09.547Z,29.50
2018-07-05T17:38:49.455Z,29.30
2018-07-05T17:41:29.166Z,29.20
2018-07-05T17:44:09.001Z,29.00
2018-07-05T17:46:48.928Z,28.90
2018-07-05T17:49:28.946Z,28.80
2018-07-05T17:52:08.753Z,28.80
2018-07-05T17:54:48.440Z,28.80
2018-07-05T17:57:28.063Z,28.60
2018-07-05T18:00:07.814Z,28.50
2018-07-05T18:02:47.753Z,28.30
2018-07-05T18:05:27.520Z,28.10
2018-07-05T18:08:07.610Z,27.90
2018-07-05T18:10:47.393Z,27.70
2018-07-05T18:13:27.538Z,27.60
2018-07-05T18:16:07.427Z,27.50
2018-07-05T18:18:47.264Z,27.40
2018-07-05T18:21:26.966Z,27.20
2018-07-05T18:24:07.060Z,27.00
2018-07-05T18:26:46.856Z,26.90
2018-07-05T18:29:26.632Z,26.70
2018-07-05T18:32:06.391Z,26.60
2018-07-05T18:34:46.187Z,26.50
2018-07-05T18:37:26.105Z,26.40
2018-07-05T18:40:06.209Z,26.30
2018-07-05T18:42:45.990Z,26.20
2018-07-05T18:45:25.912Z,26.00
2018-07-05T18:48:05.824Z,25.90
2018-07-05T18:50:45.807Z,25.90
2018-07-05T18:53:25.816Z,25.80
2018-07-05T18:56:05.694Z,25.80
2018-07-05T18:58:45.563Z,25.60
2018-07-05T19:01:25.575Z,25.50
2018-07-05T19:04:05.441Z,25.50
2018-07-05T19:06:45.153Z,25.50
2018-07-05T19:09:24.938Z,25.50
2018-07-05T19:12:04.974Z,25.40
2018-07-05T19:14:44.914Z,25.40
2018-07-05T19:17:25.091Z,25.40
2018-07-05T19:20:04.876Z,25.40
2018-07-05T19:22:44.733Z,25.30
2018-07-05T19:25:24.532Z,25.20
2018-07-05T19:28:04.442Z,25.30
2018-07-05T19:30:44.280Z,25.10
2018-07-05T19:33:24.304Z,25.10
2018-07-05T19:36:04.134Z,25.00
2018-07-05T19:38:44.229Z,25.00
2018-07-05T19:41:24.016Z,24.90
2018-07-05T19:44:04.143Z,24.80
2018-07-05T19:49:36.599Z,24.70
2018-07-05T19:52:16.624Z,24.70
2018-07-05T19:54:56.671Z,24.60
2018-07-05T19:57:36.398Z,24.60
2018-07-05T20:00:16.422Z,24.50
2018-07-05T20:02:56.246Z,24.30
2018-07-05T20:05:36.170Z,24.30
2018-07-05T20:08:16.174Z,24.40
2018-07-05T20:10:58.217Z,24.50
2018-07-05T20:13:39.080Z,24.40
2018-07-05T20:16:19.226Z,24.50
2018-07-05T20:18:59.474Z,24.50
2018-07-05T20:21:39.677Z,24.80
2018-07-05T20:24:19.768Z,24.90
2018-07-05T20:26:59.648Z,24.90
2018-07-05T20:29:39.615Z,24.90
2018-07-05T20:32:19.320Z,24.80
2018-07-05T20:34:59.227Z,24.80
2018-07-05T20:37:39.207Z,24.80
2018-07-05T20:40:19.135Z,24.80
2018-07-05T20:42:59.083Z,24.80
2018-07-05T20:45:38.964Z,24.80
2018-07-05T20:48:18.839Z,24.70
2018-07-05T20:50:58.674Z,24.70
2018-07-05T20:53:38.572Z,24.60
2018-07-05T20:56:18.494Z,24.50
2018-07-05T20:58:58.477Z,24.50
2018-07-05T21:01:38.511Z,24.50
2018-07-05T21:04:18.785Z,24.50
2018-07-05T21:06:58.569Z,24.60
2018-07-05T21:09:38.457Z,24.50
2018-07-05T21:12:18.318Z,24.50
2018-07-05T21:14:58.257Z,24.40
2018-07-05T21:17:38.249Z,24.30
2018-07-05T21:20:18.176Z,24.20
2018-07-05T21:22:57.931Z,24.40
2018-07-05T21:25:37.938Z,24.40
2018-07-05T21:28:17.728Z,24.30
2018-07-05T21:30:57.854Z,24.10
2018-07-05T21:33:37.704Z,24.00
2018-07-05T21:36:17.817Z,23.90
2018-07-05T21:38:57.514Z,23.90
2018-07-05T21:41:37.479Z,23.90
2018-07-05T21:44:17.317Z,23.80
2018-07-05T21:46:57.214Z,23.80
2018-07-05T21:49:37.104Z,23.70
2018-07-05T21:52:17.094Z,23.60
2018-07-05T21:54:56.990Z,23.50
2018-07-05T21:57:37.011Z,23.40
2018-07-05T22:00:17.059Z,23.30
2018-07-05T22:02:57.071Z,23.30
2018-07-05T22:05:36.980Z,23.30
2018-07-05T22:08:16.831Z,23.20
2018-07-05T22:10:56.528Z,23.20
2018-07-05T22:13:36.448Z,23.20
2018-07-05T22:16:16.284Z,23.10
2018-07-05T22:19:01.775Z,23.00
2018-07-05T22:21:46.911Z,23.00
2018-07-05T22:24:32.191Z,23.00
2018-07-05T22:27:17.326Z,22.90
2018-07-05T22:30:02.516Z,23.10
2018-07-05T22:32:42.276Z,23.20
2018-07-05T22:35:22.104Z,23.30
2018-07-05T22:38:01.860Z,23.20
2018-07-05T22:40:41.999Z,23.10
2018-07-05T22:43:21.812Z,23.00
2018-07-05T22:46:01.643Z,22.90
2018-07-05T22:48:41.496Z,22.90
2018-07-05T22:51:21.580Z,22.70
2018-07-05T22:54:01.446Z,22.70
2018-07-05T22:56:41.542Z,22.60
2018-07-05T22:59:21.280Z,22.60
2018-07-05T23:02:01.179Z,22.70
2018-07-05T23:04:40.968Z,22.60
2018-07-05T23:07:20.850Z,22.60
2018-07-05T23:10:00.626Z,22.70
2018-07-05T23:12:40.767Z,22.70
2018-07-05T23:15:20.783Z,22.80
2018-07-05T23:18:00.769Z,22.70
2018-07-05T23:20:40.640Z,22.70
2018-07-05T23:23:20.557Z,22.80
2018-07-05T23:26:00.405Z,22.80
2018-07-05T23:28:40.352Z,22.90
2018-07-05T23:31:20.126Z,22.80
2018-07-05T23:34:00.122Z,22.90
2018-07-05T23:36:40.120Z,23.00
2018-07-05T23:39:19.868Z,23.10
2018-07-05T23:41:59.702Z,23.20
2018-07-05T23:44:39.577Z,23.10
2018-07-05T23:47:19.425Z,23.00
2018-07-05T23:49:59.304Z,23.10
2018-07-05T23:52:39.277Z,23.10
2018-07-05T23:55:19.388Z,23.20
2018-07-05T23:57:59.111Z,23.20
